createdAt,value
2019-06-18T00:00:10.668Z,22.3
2019-06-18T00:01:12.134Z,22.2
2019-06-18T00:02:13.419Z,22.2
2019-06-18T00:03:14.690Z,22.1
2019-06-18T00:04:16.066Z,22.2
2019-06-18T00:05:20.458Z,22.4
2019-06-18T00:06:24.423Z,22.4
2019-06-18T00:07:31.062Z,22.5
2019-06-18T00:08:35.100Z,22.4
2019-06-18T00:09:40.499Z,22.2
2019-06-18T00:10:44.740Z,22.2
2019-06-18T00:11:51.219Z,22.3
2019-06-18T00:12:56.367Z,22.3
2019-06-18T00:14:03.151Z,22.2
2019-06-18T00:15:07.820Z,22.2
2019-06-18T00:16:13.294Z,22.3
2019-06-18T00:17:17.018Z,22.2
2019-06-18T00:18:23.016Z,22.3
2019-06-18T00:19:26.808Z,22.4
2019-06-18T00:20:33.777Z,22.2
2019-06-18T00:21:37.669Z,22.1
2019-06-18T00:22:43.879Z,22
2019-06-18T00:23:48.040Z,21.9
2019-06-18T00:24:53.448Z,21.8
2019-06-18T00:25:57.385Z,21.8
2019-06-18T00:27:03.405Z,21.9
2019-06-18T00:28:07.289Z,21.9
2019-06-18T00:29:12.354Z,21.8
2019-06-18T00:30:18.795Z,21.6
2019-06-18T00:31:25.170Z,21.7
2019-06-18T00:32:30.502Z,21.5
2019-06-18T00:33:34.871Z,21.5
2019-06-18T00:34:41.108Z,21.4
2019-06-18T00:35:45.163Z,21.3
2019-06-18T00:36:50.842Z,21.3
2019-06-18T00:37:55.120Z,21.4
2019-06-18T00:38:59.261Z,21.5
2019-06-18T00:40:03.178Z,21.7
2019-06-18T00:41:11.278Z,21.8
2019-06-18T00:42:16.861Z,21.9
2019-06-18T00:43:20.775Z,21.9
2019-06-18T00:44:24.322Z,22
2019-06-18T00:45:29.204Z,22
2019-06-18T00:46:32.919Z,21.8
2019-06-18T00:47:39.249Z,21.7
2019-06-18T00:48:42.778Z,21.6
2019-06-18T00:49:46.700Z,21.6
2019-06-18T00:50:52.872Z,21.5
2019-06-18T00:51:57.253Z,21.4
2019-06-18T00:53:01.000Z,21.4
2019-06-18T00:54:06.619Z,21.3
2019-06-18T00:55:10.366Z,21.3
2019-06-18T00:56:13.756Z,21.3
2019-06-18T00:57:19.099Z,21.3
2019-06-18T00:58:22.555Z,21.4
2019-06-18T00:59:28.209Z,21.4
2019-06-18T01:00:31.693Z,21.4
2019-06-18T01:01:38.068Z,21.2
2019-06-18T01:02:42.462Z,21.2
2019-06-18T01:03:50.337Z,21.2
2019-06-18T01:04:53.949Z,21.2
2019-06-18T01:06:03.397Z,21.2
2019-06-18T01:07:09.956Z,21.2
2019-06-18T01:08:13.680Z,21.3
2019-06-18T01:09:19.535Z,21.1
2019-06-18T01:10:23.067Z,21.2
2019-06-18T01:11:29.053Z,21.1
2019-06-18T01:12:32.534Z,21.1
2019-06-18T01:13:37.250Z,21.1
2019-06-18T01:14:40.965Z,20.9
2019-06-18T01:15:46.708Z,21
2019-06-18T01:16:50.594Z,21
2019-06-18T01:17:53.954Z,21.1
2019-06-18T01:18:59.590Z,21
2019-06-18T01:20:03.183Z,21
2019-06-18T01:21:09.042Z,21.1
2019-06-18T01:22:12.612Z,21
2019-06-18T01:23:15.925Z,21.1
2019-06-18T01:24:19.238Z,21
2019-06-18T01:25:25.313Z,21
2019-06-18T01:26:28.703Z,21
2019-06-18T01:27:34.772Z,20.9
2019-06-18T01:28:38.191Z,21
2019-06-18T01:29:43.157Z,20.9
2019-06-18T01:30:46.467Z,20.8
2019-06-18T01:31:49.873Z,20.9
2019-06-18T01:32:54.985Z,21
2019-06-18T01:33:58.381Z,20.9
2019-06-18T01:35:02.564Z,20.9
2019-06-18T01:36:06.259Z,21
2019-06-18T01:37:09.746Z,20.9
2019-06-18T01:38:14.648Z,20.8
2019-06-18T01:39:17.983Z,20.6
2019-06-18T01:40:22.872Z,20.7
2019-06-18T01:42:35.260Z,20.8
2019-06-18T01:43:38.656Z,20.6
2019-06-18T01:44:44.422Z,20.7
2019-06-18T01:45:47.922Z,20.7
2019-06-18T01:46:54.504Z,20.6
2019-06-18T01:48:02.343Z,20.7
2019-06-18T01:49:05.917Z,20.7
2019-06-18T01:50:09.520Z,20.6
2019-06-18T01:51:13.836Z,20.6
2019-06-18T01:52:17.238Z,20.6
2019-06-18T01:53:22.387Z,20.6
2019-06-18T01:54:26.035Z,20.7
2019-06-18T01:55:29.191Z,20.5
2019-06-18T01:56:32.587Z,20.5
2019-06-18T01:57:36.194Z,20.6
2019-06-18T01:58:39.546Z,20.6
2019-06-18T01:59:44.780Z,20.5
2019-06-18T02:00:48.230Z,20.5
2019-06-18T02:01:55.122Z,20.5
2019-06-18T02:02:59.054Z,20.4
2019-06-18T02:04:04.900Z,20.4
2019-06-18T02:05:08.720Z,20.4
2019-06-18T02:06:14.495Z,20.3
2019-06-18T02:07:18.397Z,20.3
2019-06-18T02:08:25.089Z,20.4
2019-06-18T02:09:29.037Z,20.4
2019-06-18T02:10:34.641Z,20.3
2019-06-18T02:11:36.560Z,20.1
2019-06-18T02:12:37.995Z,20
2019-06-18T02:13:39.644Z,20.1
2019-06-18T02:14:43.481Z,20.3
2019-06-18T02:15:44.894Z,20.4
2019-06-18T02:16:50.680Z,20.1
2019-06-18T02:17:58.260Z,20.2
2019-06-18T02:18:59.712Z,20.2
2019-06-18T02:20:03.840Z,20.1
2019-06-18T02:21:05.196Z,20.1
2019-06-18T02:22:07.163Z,20.2
2019-06-18T02:23:09.033Z,20.2
2019-06-18T02:24:12.759Z,20.3
2019-06-18T02:25:14.284Z,20.2
2019-06-18T02:26:15.570Z,20
2019-06-18T02:27:16.859Z,20.1
2019-06-18T02:28:18.167Z,20.1
2019-06-18T02:29:19.503Z,20.3
2019-06-18T02:30:24.008Z,20.2
2019-06-18T02:31:25.677Z,20.2
2019-06-18T02:32:26.954Z,20
2019-06-18T02:33:28.236Z,20
2019-06-18T02:34:29.547Z,20
2019-06-18T02:35:33.701Z,20
2019-06-18T02:36:35.031Z,20
2019-06-18T02:37:36.295Z,20
2019-06-18T02:38:37.587Z,20
2019-06-18T02:39:38.944Z,20
2019-06-18T02:40:42.327Z,19.9
2019-06-18T02:41:44.107Z,20
2019-06-18T02:42:45.485Z,20
2019-06-18T02:43:46.896Z,20
2019-06-18T02:44:48.173Z,19.9
2019-06-18T02:45:49.440Z,19.9
2019-06-18T02:47:08.451Z,20
2019-06-18T02:48:14.296Z,20
2019-06-18T02:49:15.607Z,20.1
2019-06-18T02:50:17.027Z,20
2019-06-18T02:51:18.320Z,19.9
2019-06-18T02:52:19.606Z,19.9
2019-06-18T02:53:23.234Z,19.7
2019-06-18T02:54:24.507Z,19.7
2019-06-18T02:55:25.858Z,19.8
2019-06-18T02:56:27.152Z,19.9
2019-06-18T02:57:28.433Z,20
2019-06-18T02:58:29.750Z,20
2019-06-18T02:59:33.640Z,20
2019-06-18T03:00:34.969Z,20
2019-06-18T03:01:36.262Z,20.1
2019-06-18T03:02:37.538Z,20.2
2019-06-18T03:03:38.819Z,20.2
2019-06-18T03:04:40.137Z,20.3
2019-06-18T03:05:44.151Z,20.1
2019-06-18T03:06:45.441Z,20.3
2019-06-18T03:07:46.718Z,20.4
2019-06-18T03:08:48.017Z,20.3
2019-06-18T03:09:49.345Z,20.1
2019-06-18T03:10:53.001Z,20
2019-06-18T03:11:54.276Z,20
2019-06-18T03:12:55.533Z,20.1
2019-06-18T03:13:56.815Z,20
2019-06-18T03:14:58.085Z,20.1
2019-06-18T03:15:59.409Z,20.2
2019-06-18T03:17:03.254Z,20.1
2019-06-18T03:18:04.670Z,20.1
2019-06-18T03:19:05.983Z,20.2
2019-06-18T03:20:07.280Z,20.3
2019-06-18T03:21:08.599Z,20.3
2019-06-18T03:22:15.865Z,20.2
2019-06-18T03:23:17.151Z,20.2
2019-06-18T03:24:18.413Z,20.1
2019-06-18T03:25:19.690Z,20.3
2019-06-18T03:26:22.701Z,20.2
2019-06-18T03:27:24.084Z,20.3
2019-06-18T03:28:25.356Z,20.2
2019-06-18T03:29:26.629Z,20.2
2019-06-18T03:30:27.897Z,20.2
2019-06-18T03:31:29.213Z,20
2019-06-18T03:32:34.112Z,20
2019-06-18T03:33:36.234Z,20
2019-06-18T03:34:37.501Z,20
2019-06-18T03:35:38.803Z,20.1
2019-06-18T03:36:42.575Z,20.1
2019-06-18T03:37:44.069Z,20.1
2019-06-18T03:38:45.335Z,20
2019-06-18T03:39:46.603Z,20.1
2019-06-18T03:40:47.905Z,20.1
2019-06-18T03:41:49.243Z,20.1
2019-06-18T03:42:52.619Z,20
2019-06-18T03:43:54.041Z,20.3
2019-06-18T03:44:55.336Z,20.4
2019-06-18T03:45:56.673Z,20.3
2019-06-18T03:46:58.003Z,20.3
2019-06-18T03:47:59.281Z,20.2
2019-06-18T03:49:03.235Z,20.3
2019-06-18T03:50:05.018Z,20.4
2019-06-18T03:51:06.449Z,20.4
2019-06-18T03:52:07.771Z,20.4
2019-06-18T03:53:09.084Z,20.4
2019-06-18T03:54:13.016Z,20.4
2019-06-18T03:55:14.571Z,20.4
2019-06-18T03:56:15.891Z,20.4
2019-06-18T03:57:17.209Z,20.5
2019-06-18T03:58:18.479Z,20.4
2019-06-18T03:59:21.816Z,20.4
2019-06-18T04:00:23.613Z,20.3
2019-06-18T04:01:24.875Z,20.5
2019-06-18T04:02:26.178Z,20.6
2019-06-18T04:03:27.481Z,20.6
2019-06-18T04:04:28.759Z,20.6
2019-06-18T04:05:32.705Z,20.6
2019-06-18T04:06:34.494Z,20.5
2019-06-18T04:07:35.801Z,20.5
2019-06-18T04:08:37.069Z,20.5
2019-06-18T04:09:38.375Z,20.6
2019-06-18T04:10:39.682Z,20.8
2019-06-18T04:11:43.062Z,20.9
2019-06-18T04:12:44.609Z,20.8
2019-06-18T04:13:45.909Z,20.7
2019-06-18T04:14:47.181Z,20.6
2019-06-18T04:15:48.463Z,20.8
2019-06-18T04:16:52.189Z,20.8
2019-06-18T04:18:02.263Z,20.7
2019-06-18T04:19:07.768Z,20.5
2019-06-18T04:20:09.029Z,20.6
2019-06-18T04:21:12.813Z,20.6
2019-06-18T04:22:14.341Z,20.9
2019-06-18T04:24:23.334Z,21
2019-06-18T04:25:24.633Z,20.9
2019-06-18T04:26:25.925Z,21.1
2019-06-18T04:27:27.207Z,21.1
2019-06-18T04:28:28.735Z,21.2
2019-06-18T04:29:33.249Z,21.3
2019-06-18T04:30:34.882Z,21.4
2019-06-18T04:31:36.175Z,21.4
2019-06-18T04:32:37.461Z,21.5
2019-06-18T04:33:38.789Z,21.6
2019-06-18T04:34:40.086Z,21.7
2019-06-18T04:35:44.007Z,21.7
2019-06-18T04:36:45.292Z,21.8
2019-06-18T04:37:46.613Z,22
2019-06-18T04:38:47.942Z,22
2019-06-18T04:39:51.963Z,22
2019-06-18T04:40:55.932Z,22.1
2019-06-18T04:41:57.209Z,22
2019-06-18T04:42:58.504Z,22.1
2019-06-18T04:43:59.842Z,22.2
2019-06-18T04:45:04.391Z,22.3
2019-06-18T04:46:05.709Z,22.4
2019-06-18T04:47:07.068Z,22.5
2019-06-18T04:48:20.821Z,22.6
2019-06-18T04:49:28.453Z,22.7
2019-06-18T04:50:29.726Z,22.8
2019-06-18T04:51:33.580Z,22.7
2019-06-18T04:52:34.842Z,22.9
2019-06-18T04:53:36.164Z,23
2019-06-18T04:54:37.461Z,23.1
2019-06-18T04:55:38.784Z,23.2
2019-06-18T04:56:40.069Z,23.2
2019-06-18T04:57:44.048Z,23.3
2019-06-18T04:58:45.340Z,23.3
2019-06-18T04:59:46.670Z,23.4
2019-06-18T05:00:48.012Z,23.4
2019-06-18T05:01:49.299Z,23.4
2019-06-18T05:02:53.454Z,23.5
2019-06-18T05:03:58.103Z,23.6
2019-06-18T05:04:59.426Z,23.7
2019-06-18T05:06:03.910Z,23.8
2019-06-18T05:07:05.550Z,23.9
2019-06-18T05:08:06.907Z,24
2019-06-18T05:09:08.358Z,24.1
2019-06-18T05:10:11.778Z,24.1
2019-06-18T05:11:13.553Z,24.2
2019-06-18T05:12:14.922Z,24.3
2019-06-18T05:13:16.210Z,24.4
2019-06-18T05:14:17.512Z,24.5
2019-06-18T05:15:18.864Z,24.4
2019-06-18T05:16:20.202Z,24.5
2019-06-18T05:17:24.978Z,24.7
2019-06-18T05:18:36.475Z,24.8
2019-06-18T05:19:43.608Z,24.9
2019-06-18T05:20:45.249Z,25
2019-06-18T05:21:46.552Z,25
2019-06-18T05:22:47.853Z,25.1
2019-06-18T05:23:49.166Z,25.1
2019-06-18T05:24:53.095Z,25.2
2019-06-18T05:25:54.572Z,25.2
2019-06-18T05:26:55.884Z,25.2
2019-06-18T05:27:57.180Z,25.2
2019-06-18T05:28:58.475Z,25.3
2019-06-18T05:29:59.810Z,25.3
2019-06-18T05:31:04.696Z,25.4
2019-06-18T05:32:06.020Z,25.5
2019-06-18T05:33:07.345Z,25.5
2019-06-18T05:34:08.674Z,25.6
2019-06-18T05:35:12.400Z,25.7
2019-06-18T05:36:13.872Z,25.8
2019-06-18T05:37:15.197Z,25.9
2019-06-18T05:38:16.490Z,26
2019-06-18T05:39:17.774Z,26.1
2019-06-18T05:40:19.047Z,26.2
2019-06-18T05:41:22.663Z,26.2
2019-06-18T05:42:24.228Z,26.3
2019-06-18T05:43:25.518Z,26.4
2019-06-18T05:44:26.838Z,26.4
2019-06-18T05:45:28.160Z,26.5
2019-06-18T05:46:29.474Z,26.6
2019-06-18T05:47:33.929Z,26.6
2019-06-18T05:48:50.391Z,26.6
2019-06-18T05:49:56.292Z,26.6
2019-06-18T05:50:57.587Z,26.6
2019-06-18T05:51:58.911Z,26.7
2019-06-18T05:53:02.857Z,26.7
2019-06-18T05:54:04.726Z,26.8
2019-06-18T05:55:06.041Z,26.8
2019-06-18T05:56:07.314Z,26.9
2019-06-18T05:57:08.619Z,26.9
2019-06-18T05:58:12.353Z,27
2019-06-18T05:59:14.180Z,27
2019-06-18T06:00:15.487Z,27.1
2019-06-18T06:01:16.788Z,27.1
2019-06-18T06:02:18.116Z,27.2
2019-06-18T06:03:19.464Z,27.2
2019-06-18T06:04:23.069Z,27.2
2019-06-18T06:05:24.664Z,27.3
2019-06-18T06:06:25.940Z,27.3
2019-06-18T06:07:27.451Z,27.4
2019-06-18T06:08:28.750Z,27.5
2019-06-18T06:09:32.621Z,27.5
2019-06-18T06:10:34.251Z,27.6
2019-06-18T06:11:35.963Z,27.7
2019-06-18T06:12:37.294Z,27.8
2019-06-18T06:13:38.586Z,27.9
2019-06-18T06:14:39.916Z,28
2019-06-18T06:15:43.663Z,28.1
2019-06-18T06:16:44.948Z,28.1
2019-06-18T06:17:46.285Z,28.1
2019-06-18T06:18:47.578Z,28.2
2019-06-18T06:19:48.872Z,28.2
2019-06-18T06:20:50.156Z,28.3
2019-06-18T06:21:54.013Z,28.3
2019-06-18T06:22:55.317Z,28.3
2019-06-18T06:23:56.600Z,28.3
2019-06-18T06:24:57.933Z,28.4
2019-06-18T06:25:59.597Z,28.4
2019-06-18T06:27:02.806Z,28.5
2019-06-18T06:28:04.654Z,28.5
2019-06-18T06:29:05.945Z,28.5
2019-06-18T06:30:07.243Z,28.6
2019-06-18T06:31:08.532Z,28.6
2019-06-18T06:32:09.853Z,28.7
2019-06-18T06:33:13.876Z,28.7
2019-06-18T06:34:15.153Z,28.7
2019-06-18T06:35:16.462Z,28.7
2019-06-18T06:36:17.739Z,28.7
2019-06-18T06:37:19.038Z,28.7
2019-06-18T06:38:23.262Z,28.7
2019-06-18T06:39:24.706Z,28.7
2019-06-18T06:40:26.465Z,28.8
2019-06-18T06:41:27.755Z,28.8
2019-06-18T06:42:29.062Z,28.9
2019-06-18T06:43:33.290Z,29
2019-06-18T06:44:34.645Z,29
2019-06-18T06:45:35.928Z,29
2019-06-18T06:46:37.220Z,29
2019-06-18T06:47:38.537Z,29.1
2019-06-18T06:48:39.869Z,29.1
2019-06-18T06:49:43.710Z,29.1
2019-06-18T06:50:45.001Z,29.2
2019-06-18T06:51:46.299Z,29.3
2019-06-18T06:52:47.578Z,29.4
2019-06-18T06:53:48.901Z,29.4
2019-06-18T06:54:52.279Z,29.5
2019-06-18T06:55:53.721Z,29.5
2019-06-18T06:56:55.051Z,29.5
2019-06-18T06:57:56.353Z,29.5
2019-06-18T06:58:57.701Z,29.6
2019-06-18T06:59:58.999Z,29.7
2019-06-18T07:01:03.196Z,29.8
2019-06-18T07:02:04.771Z,29.8
2019-06-18T07:03:06.081Z,29.8
2019-06-18T07:04:07.439Z,29.8
2019-06-18T07:05:08.733Z,29.9
2019-06-18T07:06:10.083Z,29.9
2019-06-18T07:07:13.941Z,29.9
2019-06-18T07:08:15.244Z,29.9
2019-06-18T07:09:16.573Z,29.9
2019-06-18T07:10:17.856Z,30
2019-06-18T07:11:19.201Z,30
2019-06-18T07:12:23.681Z,30
2019-06-18T07:13:25.228Z,30.1
2019-06-18T07:14:26.587Z,30.1
2019-06-18T07:15:27.906Z,30.2
2019-06-18T07:16:29.215Z,30.2
2019-06-18T07:17:33.231Z,30.2
2019-06-18T07:18:34.691Z,30.3
2019-06-18T07:19:49.473Z,30.3
2019-06-18T07:20:57.383Z,30.4
2019-06-18T07:21:58.660Z,30.4
2019-06-18T07:22:59.954Z,30.5
2019-06-18T07:24:03.873Z,30.6
2019-06-18T07:25:05.207Z,30.6
2019-06-18T07:26:06.497Z,30.6
2019-06-18T07:27:07.793Z,30.7
2019-06-18T07:28:09.075Z,30.7
2019-06-18T07:29:14.290Z,30.8
2019-06-18T07:30:15.851Z,30.8
2019-06-18T07:31:17.145Z,30.8
2019-06-18T07:32:18.457Z,30.9
2019-06-18T07:33:19.737Z,30.9
2019-06-18T07:34:23.863Z,31
2019-06-18T07:35:29.636Z,31.1
2019-06-18T07:36:34.565Z,31.1
2019-06-18T07:37:35.873Z,31.2
2019-06-18T07:38:37.175Z,31.2
2019-06-18T07:39:38.500Z,31.2
2019-06-18T07:40:39.823Z,31.2
2019-06-18T07:41:43.811Z,31.2
2019-06-18T07:42:45.105Z,31.3
2019-06-18T07:43:46.397Z,31.3
2019-06-18T07:44:48.577Z,31.4
2019-06-18T07:45:55.379Z,31.5
2019-06-18T07:46:56.689Z,31.5
2019-06-18T07:47:58.002Z,31.5
2019-06-18T07:48:59.304Z,31.5
2019-06-18T07:50:10.983Z,31.6
2019-06-18T07:51:23.585Z,31.5
2019-06-18T07:52:25.089Z,31.4
2019-06-18T07:53:26.381Z,31.4
2019-06-18T07:54:27.664Z,31.4
2019-06-18T07:55:28.911Z,31.4
2019-06-18T07:56:32.796Z,31.4
2019-06-18T07:57:34.438Z,31.4
2019-06-18T07:58:35.767Z,31.3
2019-06-18T07:59:37.054Z,31.4
2019-06-18T08:00:38.331Z,31.4
2019-06-18T08:01:39.873Z,31.4
2019-06-18T08:02:44.161Z,31.4
2019-06-18T08:03:45.449Z,31.4
2019-06-18T08:04:46.742Z,31.4
2019-06-18T08:05:48.015Z,31.4
2019-06-18T08:06:49.317Z,31.5
2019-06-18T08:07:52.887Z,31.5
2019-06-18T08:08:54.363Z,31.6
2019-06-18T08:09:55.639Z,31.6
2019-06-18T08:10:56.889Z,31.7
2019-06-18T08:11:58.201Z,31.8
2019-06-18T08:12:59.485Z,31.8
2019-06-18T08:14:03.412Z,31.8
2019-06-18T08:15:04.831Z,31.9
2019-06-18T08:16:06.111Z,31.9
2019-06-18T08:17:07.416Z,32
2019-06-18T08:18:08.703Z,31.9
2019-06-18T08:19:10.038Z,32
2019-06-18T08:20:30.640Z,32
2019-06-18T08:21:39.278Z,32
2019-06-18T08:22:43.258Z,32
2019-06-18T08:23:44.759Z,32
2019-06-18T08:24:46.060Z,32
2019-06-18T08:25:47.353Z,32.1
2019-06-18T08:26:48.643Z,32.1
2019-06-18T08:27:52.266Z,32.1
2019-06-18T08:28:54.089Z,32.2
2019-06-18T08:29:57.541Z,32.2
2019-06-18T08:30:58.844Z,32.2
2019-06-18T08:32:02.585Z,32.2
2019-06-18T08:33:06.748Z,32.2
2019-06-18T08:34:08.032Z,32.2
2019-06-18T08:35:09.749Z,32.3
2019-06-18T08:36:13.397Z,32.3
2019-06-18T08:37:14.713Z,32.3
2019-06-18T08:38:16.327Z,32.3
2019-06-18T08:39:17.604Z,32.4
2019-06-18T08:40:18.871Z,32.5
2019-06-18T08:41:23.031Z,32.5
2019-06-18T08:42:24.312Z,32.5
2019-06-18T08:43:25.664Z,32.5
2019-06-18T08:44:26.960Z,32.5
2019-06-18T08:45:28.259Z,32.6
2019-06-18T08:46:29.559Z,32.6
2019-06-18T08:47:33.402Z,32.6
2019-06-18T08:48:34.723Z,32.7
2019-06-18T08:49:39.023Z,32.7
2019-06-18T08:50:46.796Z,32.7
2019-06-18T08:51:57.813Z,32.7
2019-06-18T08:52:59.075Z,32.7
2019-06-18T08:54:02.493Z,32.7
2019-06-18T08:55:03.989Z,32.7
2019-06-18T08:56:05.345Z,32.7
2019-06-18T08:57:06.697Z,32.8
2019-06-18T08:58:07.989Z,32.8
2019-06-18T08:59:09.343Z,32.8
2019-06-18T09:00:12.610Z,32.7
2019-06-18T09:01:14.085Z,32.7
2019-06-18T09:02:15.383Z,32.7
2019-06-18T09:03:25.049Z,32.7
2019-06-18T09:04:30.173Z,32.6
2019-06-18T09:05:33.887Z,32.8
2019-06-18T09:06:35.189Z,32.7
2019-06-18T09:07:36.463Z,32.7
2019-06-18T09:08:37.756Z,32.7
2019-06-18T09:09:39.552Z,32.7
2019-06-18T09:10:43.076Z,32.7
2019-06-18T09:11:46.727Z,32.7
2019-06-18T09:12:48.019Z,32.7
2019-06-18T09:13:49.286Z,32.7
2019-06-18T09:14:52.385Z,32.7
2019-06-18T09:15:53.790Z,32.7
2019-06-18T09:16:55.077Z,32.7
2019-06-18T09:17:56.365Z,32.7
2019-06-18T09:18:57.657Z,32.7
2019-06-18T09:19:58.976Z,32.7
2019-06-18T09:21:07.365Z,32.8
2019-06-18T09:22:09.367Z,32.8
2019-06-18T09:23:12.797Z,32.8
2019-06-18T09:24:14.252Z,32.8
2019-06-18T09:25:15.602Z,32.8
2019-06-18T09:26:16.902Z,32.8
2019-06-18T09:27:18.184Z,32.8
2019-06-18T09:28:19.465Z,32.8
2019-06-18T09:29:22.699Z,32.8
2019-06-18T09:30:24.259Z,32.7
2019-06-18T09:31:25.552Z,32.7
2019-06-18T09:32:26.871Z,32.7
2019-06-18T09:33:28.184Z,32.7
2019-06-18T09:34:29.877Z,32.6
2019-06-18T09:35:33.871Z,32.6
2019-06-18T09:36:35.195Z,32.6
2019-06-18T09:37:36.467Z,32.6
2019-06-18T09:38:37.760Z,32.6
2019-06-18T09:39:39.079Z,32.6
2019-06-18T09:40:42.553Z,32.6
2019-06-18T09:41:43.948Z,32.7
2019-06-18T09:42:45.228Z,32.7
2019-06-18T09:43:46.501Z,32.7
2019-06-18T09:44:47.792Z,32.7
2019-06-18T09:45:49.103Z,32.6
2019-06-18T09:46:50.386Z,32.6
2019-06-18T09:47:54.233Z,32.5
2019-06-18T09:48:55.565Z,32.5
2019-06-18T09:49:56.840Z,32.5
2019-06-18T09:50:58.203Z,32.5
2019-06-18T09:51:59.475Z,32.5
2019-06-18T09:53:03.328Z,32.5
2019-06-18T09:54:04.604Z,32.4
2019-06-18T09:55:05.899Z,32.4
2019-06-18T09:56:07.224Z,32.4
2019-06-18T09:57:08.519Z,32.5
2019-06-18T09:58:11.973Z,32.5
2019-06-18T09:59:13.766Z,32.5
2019-06-18T10:00:15.065Z,32.4
2019-06-18T10:01:16.390Z,32.4
2019-06-18T10:02:17.670Z,32.4
2019-06-18T10:03:18.959Z,32.3
2019-06-18T10:04:20.237Z,32.3
2019-06-18T10:05:24.195Z,32.3
2019-06-18T10:06:25.541Z,32.3
2019-06-18T10:07:26.845Z,32.3
2019-06-18T10:08:28.192Z,32.3
2019-06-18T10:09:29.465Z,32.3
2019-06-18T10:10:33.579Z,32.4
2019-06-18T10:11:34.921Z,32.5
2019-06-18T10:12:36.196Z,32.4
2019-06-18T10:13:37.472Z,32.4
2019-06-18T10:14:38.742Z,32.3
2019-06-18T10:15:40.017Z,32.3
2019-06-18T10:16:43.943Z,32.4
2019-06-18T10:17:47.981Z,32.3
2019-06-18T10:18:49.452Z,32.3
2019-06-18T10:19:53.940Z,32.3
2019-06-18T10:20:55.252Z,32.3
2019-06-18T10:21:56.646Z,32.3
2019-06-18T10:22:57.957Z,32.2
2019-06-18T10:23:59.319Z,32.2
2019-06-18T10:25:03.530Z,32.2
2019-06-18T10:26:04.932Z,32.1
2019-06-18T10:27:06.269Z,32.1
2019-06-18T10:28:07.540Z,32.1
2019-06-18T10:29:25.831Z,32
2019-06-18T10:30:50.292Z,32.1
2019-06-18T10:31:53.968Z,32.1
2019-06-18T10:32:55.610Z,32.1
2019-06-18T10:33:56.933Z,32
2019-06-18T10:34:58.225Z,32
2019-06-18T10:35:59.513Z,32
2019-06-18T10:37:04.557Z,31.9
2019-06-18T10:38:06.918Z,32
2019-06-18T10:39:08.212Z,32
2019-06-18T10:40:09.522Z,32
2019-06-18T10:41:13.319Z,31.9
2019-06-18T10:42:19.241Z,31.9
2019-06-18T10:43:22.897Z,31.9
2019-06-18T10:44:24.293Z,31.9
2019-06-18T10:45:25.628Z,31.9
2019-06-18T10:46:26.963Z,31.9
2019-06-18T10:47:28.296Z,31.8
2019-06-18T10:48:29.622Z,31.8
2019-06-18T10:49:30.930Z,31.8
2019-06-18T10:50:35.463Z,31.8
2019-06-18T10:51:50.086Z,31.9
2019-06-18T10:53:02.472Z,31.9
2019-06-18T10:54:06.127Z,31.9
2019-06-18T10:55:07.428Z,31.9
2019-06-18T10:56:08.718Z,31.8
2019-06-18T10:57:10.007Z,31.8
2019-06-18T10:58:13.935Z,31.8
2019-06-18T10:59:15.306Z,31.7
2019-06-18T11:00:16.600Z,31.7
2019-06-18T11:01:18.250Z,31.7
2019-06-18T11:02:19.573Z,31.7
2019-06-18T11:03:23.570Z,31.7
2019-06-18T11:04:24.914Z,31.7
2019-06-18T11:05:26.212Z,31.7
2019-06-18T11:06:29.790Z,31.7
2019-06-18T11:07:33.736Z,31.7
2019-06-18T11:08:35.163Z,31.8
2019-06-18T11:09:36.521Z,31.7
2019-06-18T11:10:37.855Z,31.7
2019-06-18T11:11:39.148Z,31.7
2019-06-18T11:12:43.049Z,31.7
2019-06-18T11:13:44.855Z,31.6
2019-06-18T11:14:46.187Z,31.6
2019-06-18T11:15:47.469Z,31.6
2019-06-18T11:16:48.812Z,31.5
2019-06-18T11:17:50.160Z,31.5
2019-06-18T11:18:54.084Z,31.5
2019-06-18T11:19:55.419Z,31.5
2019-06-18T11:20:56.704Z,31.5
2019-06-18T11:22:09.792Z,31.5
2019-06-18T11:23:30.370Z,31.5
2019-06-18T11:24:38.712Z,31.6
2019-06-18T11:25:40.088Z,31.5
2019-06-18T11:26:43.643Z,31.5
2019-06-18T11:27:45.378Z,31.5
2019-06-18T11:28:46.686Z,31.5
2019-06-18T11:29:47.986Z,31.5
2019-06-18T11:30:49.322Z,31.5
2019-06-18T11:31:52.514Z,31.5
2019-06-18T11:32:53.992Z,31.6
2019-06-18T11:33:55.277Z,31.5
2019-06-18T11:34:56.553Z,31.5
2019-06-18T11:35:57.870Z,31.5
2019-06-18T11:36:59.173Z,31.5
2019-06-18T11:38:03.838Z,31.4
2019-06-18T11:39:05.322Z,31.4
2019-06-18T11:40:08.071Z,31.5
2019-06-18T11:41:09.529Z,31.5
2019-06-18T11:42:12.814Z,31.5
2019-06-18T11:43:14.350Z,31.5
2019-06-18T11:44:15.657Z,31.5
2019-06-18T11:45:16.994Z,31.5
2019-06-18T11:46:18.309Z,31.5
2019-06-18T11:47:19.612Z,31.5
2019-06-18T11:48:23.576Z,31.5
2019-06-18T11:49:24.851Z,31.5
2019-06-18T11:50:26.116Z,31.5
2019-06-18T11:51:27.525Z,31.5
2019-06-18T11:52:32.066Z,31.4
2019-06-18T11:53:34.313Z,31.4
2019-06-18T11:54:35.596Z,31.4
2019-06-18T11:55:36.882Z,31.4
2019-06-18T11:56:38.183Z,31.4
2019-06-18T11:57:39.465Z,31.4
2019-06-18T11:58:43.185Z,31.5
2019-06-18T11:59:44.482Z,31.5
2019-06-18T12:00:45.763Z,31.4
2019-06-18T12:01:47.124Z,31.4
2019-06-18T12:02:48.419Z,31.4
2019-06-18T12:03:52.239Z,31.4
2019-06-18T12:04:54.095Z,31.4
2019-06-18T12:05:55.381Z,31.5
2019-06-18T12:06:57.418Z,31.4
2019-06-18T12:07:58.853Z,31.4
2019-06-18T12:09:02.499Z,31.4
2019-06-18T12:10:04.018Z,31.3
2019-06-18T12:11:05.329Z,31.3
2019-06-18T12:12:06.649Z,31.4
2019-06-18T12:13:07.930Z,31.4
2019-06-18T12:14:09.290Z,31.4
2019-06-18T12:15:13.308Z,31.4
2019-06-18T12:16:14.681Z,31.5
2019-06-18T12:17:16.070Z,31.4
2019-06-18T12:18:17.366Z,31.4
2019-06-18T12:19:18.701Z,31.3
2019-06-18T12:20:20.251Z,31.3
2019-06-18T12:21:21.570Z,31.3
2019-06-18T12:22:23.030Z,31.2
2019-06-18T12:23:24.497Z,31.2
2019-06-18T12:24:25.896Z,31.1
2019-06-18T12:25:27.153Z,31.1
2019-06-18T12:26:28.450Z,31
2019-06-18T12:27:29.771Z,31
2019-06-18T12:28:32.882Z,31.1
2019-06-18T12:29:34.345Z,31.1
2019-06-18T12:30:35.638Z,31.1
2019-06-18T12:31:36.982Z,31.1
2019-06-18T12:32:51.133Z,31.1
2019-06-18T12:33:55.759Z,31.1
2019-06-18T12:34:57.071Z,31.1
2019-06-18T12:35:58.377Z,31.1
2019-06-18T12:36:59.691Z,31.1
2019-06-18T12:38:03.907Z,31.1
2019-06-18T12:39:05.229Z,31.1
2019-06-18T12:40:06.510Z,31.1
2019-06-18T12:41:07.789Z,31.1
2019-06-18T12:42:09.084Z,31.1
2019-06-18T12:43:13.429Z,31.1
2019-06-18T12:44:14.699Z,31.1
2019-06-18T12:45:16.379Z,31.1
2019-06-18T12:46:17.689Z,31.1
2019-06-18T12:47:18.981Z,31.1
2019-06-18T12:48:23.238Z,31.1
2019-06-18T12:49:25.160Z,31.1
2019-06-18T12:50:26.487Z,31.1
2019-06-18T12:51:27.769Z,31.1
2019-06-18T12:52:29.084Z,31.1
2019-06-18T12:53:33.249Z,31.1
2019-06-18T12:54:34.537Z,31.1
2019-06-18T12:55:35.829Z,31.1
2019-06-18T12:56:37.105Z,31.1
2019-06-18T12:57:38.418Z,31.1
2019-06-18T12:58:39.764Z,31
2019-06-18T12:59:43.873Z,31
2019-06-18T13:00:45.285Z,31
2019-06-18T13:01:46.567Z,31
2019-06-18T13:02:47.845Z,31
2019-06-18T13:03:49.167Z,31
2019-06-18T13:04:50.463Z,31.1
2019-06-18T13:05:54.912Z,31
2019-06-18T13:06:56.263Z,31
2019-06-18T13:08:03.181Z,31
2019-06-18T13:09:04.837Z,31
2019-06-18T13:10:06.131Z,31
2019-06-18T13:11:07.421Z,31
2019-06-18T13:12:08.725Z,31
2019-06-18T13:13:10.028Z,31
2019-06-18T13:14:14.663Z,31.1
2019-06-18T13:15:15.973Z,31.1
2019-06-18T13:16:17.273Z,31.1
2019-06-18T13:17:18.605Z,31
2019-06-18T13:18:19.905Z,31.1
2019-06-18T13:19:23.077Z,31
2019-06-18T13:20:24.449Z,31
2019-06-18T13:21:25.782Z,31
2019-06-18T13:22:27.061Z,31
2019-06-18T13:23:29.877Z,31
2019-06-18T13:24:35.682Z,31
2019-06-18T13:25:37.201Z,31
2019-06-18T13:26:38.523Z,31
2019-06-18T13:27:39.829Z,30.9
2019-06-18T13:28:43.004Z,31
2019-06-18T13:29:44.585Z,31
2019-06-18T13:30:45.917Z,31
2019-06-18T13:31:47.189Z,31
2019-06-18T13:32:48.492Z,31
2019-06-18T13:33:49.782Z,31
2019-06-18T13:34:53.941Z,31.1
2019-06-18T13:35:55.252Z,31
2019-06-18T13:36:56.552Z,31
2019-06-18T13:37:57.847Z,31
2019-06-18T13:38:59.175Z,31
2019-06-18T13:40:00.510Z,31
2019-06-18T13:41:03.936Z,30.9
2019-06-18T13:42:05.418Z,31
2019-06-18T13:43:06.725Z,30.9
2019-06-18T13:44:08.016Z,30.9
2019-06-18T13:45:09.359Z,30.9
2019-06-18T13:46:13.147Z,30.9
2019-06-18T13:47:14.483Z,31
2019-06-18T13:48:16.068Z,31
2019-06-18T13:49:17.556Z,30.9
2019-06-18T13:50:18.895Z,30.9
2019-06-18T13:51:22.455Z,31
2019-06-18T13:52:24.026Z,31
2019-06-18T13:53:41.573Z,31
2019-06-18T13:54:52.804Z,31
2019-06-18T13:55:54.629Z,31
2019-06-18T13:56:55.931Z,31
2019-06-18T13:57:57.207Z,31
2019-06-18T13:58:58.533Z,31
2019-06-18T13:59:59.835Z,31
2019-06-18T14:01:04.625Z,31
2019-06-18T14:02:05.913Z,30.9
2019-06-18T14:03:07.213Z,30.9
2019-06-18T14:04:08.465Z,30.9
2019-06-18T14:05:09.761Z,30.9